Stuyvesant — WNFX — position and weather

sailwx.info

Track history (hours):
 
Tides and Currents Weather Stations Pressure Air Temp Water Temp Dewpoint Dewpoint Depression Visibility Wind Speed Wind Dir Waves Ship Positions

Stuyvesant

Owner: THE DUTRA GROUP, SAN RAFAEL, CA. More information available from US FCC via Universal Licensing System and Coast Guard Vessel Documentation Center.

Last reported at 2017-Jun-25 07:02 UTC. Time now 2017-Jul-24 10:43 UTC.
Position N 25°28' W 080°02'.
Warning: this ship's position is 29 days out of date.

Length 122 m; draft 10 m.

Type: Dredging. MMSI: 368098000.

Date/timePositionNaut miles runAvg speedWind from/ knotsBaromVisibWave heightAir tempDewpointWater temp
2017-Jun-25 07:02N 25°28' W 080°02'011.7
2017-Jun-25 07:00N 25°28' W 080°01'611.6
2017-Jun-25 06:30N 25°34' W 080°01'611.6
2017-Jun-25 06:00N 25°39' W 079°60'611.6
2017-Jun-25 05:30N 25°45' W 079°59'611.4
2017-Jun-25 05:00N 25°51' W 079°58'611.3
2017-Jun-25 04:30N 25°56' W 079°57'511.0
2017-Jun-25 04:00N 26°02' W 079°57'510.8
2017-Jun-25 03:30N 26°07' W 079°56'510.6
2017-Jun-25 03:00N 26°13' W 079°55'510.4
2017-Jun-25 02:30N 26°18' W 079°55'510.3
2017-Jun-25 02:00N 26°23' W 079°54'  
2017-Jun-22 17:05N 36°47' W 075°51'110.3
2017-Jun-22 16:58N 36°48' W 075°52'1 1.6
2017-Jun-22 16:25N 36°49' W 075°52'0 0.9
2017-Jun-22 15:58N 36°49' W 075°53'0 0.1
2017-Jun-22 15:14N 36°49' W 075°53'0 0.6
2017-Jun-22 14:57N 36°49' W 075°53'0 0.5
2017-Jun-22 14:19N 36°49' W 075°53'8 9.4
2017-Jun-22 13:30N 36°56' W 075°58'510.7
2017-Jun-22 13:00N 36°58' W 076°04'4 6.8
2017-Jun-22 12:27N 36°59' W 076°09'0 0.4
2017-Jun-22 12:00N 36°59' W 076°09'0 0.5
2017-Jun-22 11:25N 36°59' W 076°09'1 1.3
2017-Jun-22 11:00N 36°59' W 076°10'2 2.4
2017-Jun-22 10:13N 36°59' W 076°07'312.0
2017-Jun-22 10:00N 36°58' W 076°04'611.2
2017-Jun-22 09:28N 36°55' W 075°58'510.3
2017-Jun-22 09:00N 36°52' W 075°54'1 1.3
2017-Jun-22 08:26N 36°51' W 075°53'410.3
2017-Jun-22 08:00N 36°55' W 075°57'611.8
2017-Jun-22 07:30N 36°58' W 076°03'5 4.0
2017-Jun-22 06:09N 36°59' W 076°10'2 2.3
2017-Jun-22 05:23N 36°59' W 076°08'4 9.2
2017-Jun-22 05:00N 36°58' W 076°03'5 9.3
2017-Jun-22 04:29N 36°56' W 075°58'5 9.7
2017-Jun-22 04:00N 36°52' W 075°54'0 0.4
2017-Jun-22 03:19N 36°52' W 075°54'3 8.8
2017-Jun-22 03:00N 36°54' W 075°56'511.0
2017-Jun-22 02:30N 36°57' W 076°02'7 6.7
2017-Jun-22 01:30N 36°59' W 076°10'0 0.2
2017-Jun-22 00:58N 36°59' W 076°10'0 0.2
2017-Jun-22 00:25N 36°59' W 076°10'0 0.3
2017-Jun-21 23:58N 36°59' W 076°10'9 6.8
2017-Jun-21 22:42N 36°58' W 076°20'1 0.3
2017-Jun-21 20:16N 36°57' W 076°21'0 0.1
2017-Jun-21 19:58N 36°58' W 076°21'0 0.0
2017-Jun-21 19:28N 36°58' W 076°21'0 0.0
2017-Jun-21 18:58N 36°58' W 076°21'0 0.0
2017-Jun-21 18:28N 36°58' W 076°21'0 0.0
2017-Jun-21 17:40N 36°58' W 076°21'0 0.0
2017-Jun-21 17:28N 36°58' W 076°21'0 0.0
2017-Jun-21 16:58N 36°58' W 076°21'0 0.0
2017-Jun-21 16:28N 36°58' W 076°21'0 0.0
2017-Jun-21 15:55N 36°58' W 076°21'0 0.0
2017-Jun-21 15:25N 36°58' W 076°21'0 0.0
2017-Jun-21 14:55N 36°58' W 076°21'0 0.0
2017-Jun-21 14:28N 36°58' W 076°21'8 8.1
2017-Jun-21 13:27N 36°59' W 076°11'511.4
2017-Jun-21 13:01N 36°58' W 076°05'611.0
2017-Jun-21 12:30N 36°56' W 075°58'611.3
2017-Jun-21 12:00N 36°51' W 075°54'0 0.9
2017-Jun-21 11:30N 36°51' W 075°53'510.5
2017-Jun-21 11:00N 36°55' W 075°57'510.4
2017-Jun-21 10:31N 36°57' W 076°03'4 1.6
2017-Jun-21 08:07N 36°59' W 076°08'1 8.7
2017-Jun-21 08:00N 36°58' W 076°06'510.9
2017-Jun-21 07:30N 36°56' W 075°60'510.5
2017-Jun-21 07:00N 36°53' W 075°55'2 3.4
2017-Jun-21 06:20N 36°51' W 075°53'410.1
2017-Jun-21 05:58N 36°54' W 075°56'510.6
2017-Jun-21 05:31N 36°57' W 076°01'6 2.6
2017-Jun-21 03:08N 36°59' W 076°09'0 1.7
2017-Jun-21 02:59N 36°59' W 076°08'2 5.1
2017-Jun-21 02:31N 36°58' W 076°05'5 9.6
2017-Jun-21 01:57N 36°56' W 075°59'4 9.3
2017-Jun-21 01:30N 36°53' W 075°55'5 8.7
2017-Jun-21 00:59N 36°49' W 075°53'3 6.5
2017-Jun-21 00:30N 36°52' W 075°54'4 9.1
2017-Jun-21 00:00N 36°56' W 075°58'5 9.4
2017-Jun-20 23:30N 36°58' W 076°03'4 5.7
2017-Jun-20 22:45N 36°59' W 076°08'1 1.9
2017-Jun-20 22:24N 36°59' W 076°09'1 1.3
2017-Jun-20 21:53N 36°59' W 076°10'1 2.3
2017-Jun-20 21:30N 36°59' W 076°09'11 0.8
2017-Jun-20 08:01N 36°55' W 075°56'5 9.8
2017-Jun-20 07:30N 36°57' W 076°02'2 4.9
2017-Jun-20 07:00N 36°58' W 076°04'1 1.6
2017-Jun-20 06:31N 36°58' W 076°05'0 0.5
2017-Jun-20 06:01N 36°58' W 076°06'1 1.6
2017-Jun-20 05:30N 36°58' W 076°05'2 3.2
2017-Jun-20 05:00N 36°57' W 076°03'5 9.2
2017-Jun-20 04:31N 36°56' W 075°58'4 9.0
2017-Jun-20 04:00N 36°52' W 075°54'2 3.2
2017-Jun-20 03:26N 36°51' W 075°53'4 9.5
2017-Jun-20 02:58N 36°54' W 075°56'512.0
2017-Jun-20 02:31N 36°57' W 076°02'2 4.4
2017-Jun-20 01:59N 36°58' W 076°05'1 2.0
2017-Jun-20 01:30N 36°58' W 076°06'0 0.9
2017-Jun-20 01:00N 36°58' W 076°05'1 2.0
2017-Jun-20 00:30N 36°58' W 076°04'5 9.2
2017-Jun-20 00:00N 36°56' W 075°59'5 9.1
2017-Jun-19 23:31N 36°53' W 075°55'4 8.2
2017-Jun-19 23:00N 36°49' W 075°53'3 7.2
2017-Jun-19 22:31N 36°52' W 075°54'5 9.6
2017-Jun-19 22:00N 36°56' W 075°58'5 9.7
2017-Jun-19 21:30N 36°58' W 076°04'1 2.0
2017-Jun-19 21:00N 36°58' W 076°05'1 1.7
2017-Jun-19 20:30N 36°58' W 076°06'1 1.5
2017-Jun-19 20:01N 36°58' W 076°05'1 2.2
2017-Jun-19 19:30N 36°58' W 076°04'510.0
2017-Jun-19 19:00N 36°56' W 075°58'510.2
2017-Jun-19 18:31N 36°52' W 075°54'1 2.0
2017-Jun-19 17:57N 36°51' W 075°53'4 9.8
2017-Jun-19 17:31N 36°55' W 075°57'510.6
2017-Jun-19 17:00N 36°57' W 076°02'2 4.0
2017-Jun-19 16:30N 36°58' W 076°05'1 1.9
2017-Jun-19 16:01N 36°58' W 076°06'0 0.1
2017-Jun-19 15:31N 36°58' W 076°06'1 1.4
2017-Jun-19 15:00N 36°58' W 076°05'2 2.4
2017-Jun-19 14:01N 36°57' W 076°02'5 9.1
2017-Jun-19 13:31N 36°55' W 075°57'5 9.3
2017-Jun-19 13:01N 36°51' W 075°53'1 2.0
2017-Jun-19 12:29N 36°51' W 075°53'5 9.7
2017-Jun-19 12:01N 36°54' W 075°56'510.1
2017-Jun-19 11:31N 36°57' W 076°01'4 7.9
2017-Jun-19 11:01N 36°58' W 076°06'1 2.0
2017-Jun-19 10:30N 36°58' W 076°05'0 0.9
2017-Jun-19 10:00N 36°58' W 076°04'1 1.4
2017-Jun-19 09:28N 36°58' W 076°05'1 1.5
2017-Jun-19 09:00N 36°58' W 076°06'611.4
2017-Jun-19 08:31N 36°56' W 075°59'510.4
2017-Jun-19 08:00N 36°53' W 075°55'4 7.8
2017-Jun-19 07:30N 36°49' W 075°53'4 7.3
2017-Jun-19 06:59N 36°53' W 075°55'5 9.7
2017-Jun-19 06:29N 36°56' W 075°59'4 9.1
2017-Jun-19 06:01N 36°58' W 076°04'1 1.8
2017-Jun-19 05:27N 36°58' W 076°05'1 1.5
2017-Jun-19 05:00N 36°58' W 076°06'0 0.8
2017-Jun-19 04:30N 36°58' W 076°06'1 1.4
2017-Jun-19 04:00N 36°58' W 076°05'1 2.7
2017-Jun-19 03:31N 36°58' W 076°03'5 9.0
2017-Jun-19 03:00N 36°56' W 075°58'4 8.8
2017-Jun-19 02:30N 36°52' W 075°54'3 6.6
2017-Jun-19 02:00N 36°49' W 075°53'5 9.2
2017-Jun-19 01:30N 36°53' W 075°55'510.6
2017-Jun-19 01:01N 36°57' W 076°00'3 6.5
2017-Jun-19 00:30N 36°58' W 076°04'1 1.4
2017-Jun-19 00:01N 36°58' W 076°05'0 1.0
2017-Jun-18 23:30N 36°58' W 076°06'1 2.2
2017-Jun-18 23:01N 36°58' W 076°04'0 0.6
2017-Jun-18 22:31N 36°58' W 076°04'1 1.2
2017-Jun-18 22:01N 36°58' W 076°05'1 1.1
2017-Jun-18 21:31N 36°58' W 076°04'4 8.1
2017-Jun-18 21:01N 36°56' W 075°60'510.5
2017-Jun-18 20:30N 36°53' W 075°55'3 6.9
2017-Jun-18 20:00N 36°50' W 075°53'4 8.0
2017-Jun-18 19:30N 36°53' W 075°55'4 9.0
2017-Jun-18 19:00N 36°56' W 075°59'4 7.9
2017-Jun-18 18:29N 36°58' W 076°04'1 1.1
2017-Jun-18 18:00N 36°58' W 076°05'1 1.4
2017-Jun-18 17:30N 36°58' W 076°05'0 0.7
2017-Jun-18 17:01N 36°58' W 076°06'1 1.8
2017-Jun-18 16:30N 36°58' W 076°05'1 1.6
2017-Jun-18 16:01N 36°58' W 076°04'4 8.0
2017-Jun-18 15:30N 36°56' W 075°59'4 7.9
2017-Jun-18 15:00N 36°54' W 075°56'3 3.1
2017-Jun-18 13:58N 36°51' W 075°53'510.3
2017-Jun-18 13:30N 36°55' W 075°57'510.7
2017-Jun-18 13:00N 36°57' W 076°03'2 3.4
2017-Jun-18 12:31N 36°58' W 076°05'1 1.2
2017-Jun-18 12:00N 36°58' W 076°06'0 0.8
2017-Jun-18 11:31N 36°58' W 076°06'1 1.5
2017-Jun-18 11:00N 36°58' W 076°05'1 1.4
2017-Jun-18 10:30N 36°58' W 076°04'4 8.1
2017-Jun-18 09:59N 36°56' W 075°59'510.1
2017-Jun-18 09:30N 36°53' W 075°55'5 7.2
2017-Jun-18 08:52N 36°49' W 075°53'2 5.9
2017-Jun-18 08:29N 36°51' W 075°53'3 6.9
2017-Jun-18 07:59N 36°54' W 075°56'4 6.8
2017-Jun-18 07:28N 36°56' W 075°59'3 7.2
2017-Jun-18 07:00N 36°57' W 076°03'2 2.5
2017-Jun-18 06:20N 36°58' W 076°05'0 1.3
2017-Jun-18 06:00N 36°58' W 076°05'0 0.9
2017-Jun-18 05:30N 36°58' W 076°06'1 2.8
2017-Jun-18 05:00N 36°58' W 076°04'1 1.6
2017-Jun-18 04:28N 36°58' W 076°05'1 1.7
2017-Jun-18 04:00N 36°58' W 076°06'1 1.3
2017-Jun-18 03:30N 36°58' W 076°05'1 1.6
2017-Jun-18 03:00N 36°58' W 076°04'2 4.3
2017-Jun-18 02:31N 36°57' W 076°02'5 9.1
2017-Jun-18 02:01N 36°55' W 075°57'6 9.6
2017-Jun-18 01:22N 36°50' W 075°53'2 4.8
2017-Jun-18 01:00N 36°51' W 075°53'5 9.8
2017-Jun-18 00:30N 36°55' W 075°57'510.5
2017-Jun-18 00:01N 36°58' W 076°03'1 2.1
2017-Jun-17 23:28N 36°58' W 076°05'0 1.1
2017-Jun-17 23:00N 36°58' W 076°05'1 1.0
2017-Jun-17 22:31N 36°58' W 076°06'1 1.6
2017-Jun-17 22:00N 36°58' W 076°05'1 1.9
2017-Jun-17 21:31N 36°58' W 076°04'611.2
2017-Jun-17 21:01N 36°55' W 075°57'611.1
2017-Jun-17 20:30N 36°51' W 075°53'1 2.4
2017-Jun-17 20:00N 36°52' W 075°54'5 9.5
2017-Jun-17 19:30N 36°56' W 075°58'5 9.4
2017-Jun-17 19:00N 36°57' W 076°03'2 2.5
2017-Jun-17 18:23N 36°58' W 076°05'0 1.1
2017-Jun-17 18:00N 36°58' W 076°05'1 1.2
2017-Jun-17 17:28N 36°58' W 076°06'1 1.4
2017-Jun-17 17:00N 36°58' W 076°05'1 1.6
2017-Jun-17 16:31N 36°58' W 076°04'2 5.0
2017-Jun-17 16:00N 36°57' W 076°02'510.1
2017-Jun-17 15:30N 36°54' W 075°56'510.2
2017-Jun-17 15:00N 36°50' W 075°53'2 4.1
2017-Jun-17 14:31N 36°52' W 075°54'1010.1
2017-Jun-17 13:30N 36°58' W 076°04'2 3.3
2017-Jun-17 13:01N 36°58' W 076°06'1 1.2
2017-Jun-17 12:30N 36°58' W 076°05'1 1.0
2017-Jun-17 12:00N 36°58' W 076°06'1 1.6
2017-Jun-17 11:30N 36°58' W 076°05'1 1.3
2017-Jun-17 11:00N 36°58' W 076°04'510.0
2017-Jun-17 10:31N 36°56' W 075°58'510.1
2017-Jun-17 10:00N 36°52' W 075°54'10 0.8
2017-Jun-16 21:31N 36°58' W 076°04'0 1.4
2017-Jun-16 21:31N 36°58' W 076°04'1 1.2
2017-Jun-16 21:00N 36°58' W 076°05'1 1.4
2017-Jun-16 20:30N 36°58' W 076°06'0 1.0
2017-Jun-16 20:01N 36°58' W 076°05'1 1.8
2017-Jun-16 19:30N 36°58' W 076°04'5 9.3
2017-Jun-16 19:00N 36°56' W 075°59'510.6
2017-Jun-16 18:31N 36°52' W 075°54'2 3.1
2017-Jun-16 17:55N 36°51' W 075°53'3 8.2
2017-Jun-16 17:30N 36°53' W 075°55'4 9.0
2017-Jun-16 17:01N 36°56' W 075°60'5 9.8
2017-Jun-16 16:30N 36°58' W 076°05'0 0.3
2017-Jun-16 16:00N 36°58' W 076°05'1 1.6
2017-Jun-16 15:30N 36°58' W 076°04'0 0.8
2017-Jun-16 15:00N 36°58' W 076°04'7 7.1
2017-Jun-16 14:00N 36°54' W 075°56'5 9.9
2017-Jun-16 13:30N 36°50' W 075°53'2 3.3
2017-Jun-16 13:00N 36°52' W 075°53'510.7
2017-Jun-16 12:30N 36°56' W 075°58'611.2
2017-Jun-16 12:01N 36°58' W 076°04'1 2.4
2017-Jun-16 11:30N 36°58' W 076°05'0 0.5
2017-Jun-16 11:01N 36°58' W 076°06'0 0.6
2017-Jun-16 10:31N 36°58' W 076°05'1 1.2
2017-Jun-16 10:01N 36°58' W 076°05'1 1.0
2017-Jun-16 09:31N 36°58' W 076°04'4 8.4
2017-Jun-16 09:01N 36°56' W 075°59'510.3
2017-Jun-16 08:30N 36°53' W 075°55'4 7.5
2017-Jun-16 08:00N 36°49' W 075°52'5 9.7
2017-Jun-16 07:31N 36°53' W 075°55'5 9.4
2017-Jun-16 07:01N 36°57' W 075°60'5 9.2
2017-Jun-16 06:27N 36°58' W 076°06'2 2.9
2017-Jun-16 05:37N 36°59' W 076°09'0 1.1
2017-Jun-16 05:28N 36°59' W 076°09'1 1.3
2017-Jun-16 04:59N 36°59' W 076°10'2 3.3
2017-Jun-16 04:28N 36°59' W 076°08'511.4
2017-Jun-16 04:00N 36°57' W 076°01'510.6
2017-Jun-16 03:30N 36°54' W 075°56'510.2
2017-Jun-16 03:00N 36°50' W 075°53'2 4.6
2017-Jun-16 02:30N 36°52' W 075°54'5 9.6
2017-Jun-16 02:00N 36°55' W 075°57'510.5
2017-Jun-16 01:29N 36°58' W 076°04'4 5.3
2017-Jun-16 00:45N 36°59' W 076°08'1 2.3
2017-Jun-16 00:29N 36°59' W 076°09'1 1.7
2017-Jun-15 23:59N 36°59' W 076°10'1 1.9
2017-Jun-15 23:29N 36°59' W 076°09'1 1.9
2017-Jun-15 22:56N 36°59' W 076°08'4 8.7
2017-Jun-15 22:30N 36°58' W 076°03'510.6
2017-Jun-15 22:00N 36°55' W 075°57'510.0
2017-Jun-15 21:30N 36°51' W 075°53'0 0.5
2017-Jun-15 20:53N 36°51' W 075°53'3 8.8
2017-Jun-15 20:30N 36°54' W 075°56'5 9.4
2017-Jun-15 20:00N 36°57' W 076°00'5 9.2
2017-Jun-15 19:30N 36°58' W 076°06'2 4.0
2017-Jun-15 18:59N 36°59' W 076°08'1 1.8
2017-Jun-15 18:27N 36°59' W 076°09'1 1.6
2017-Jun-15 18:00N 36°59' W 076°10'1 2.2
2017-Jun-15 17:27N 36°59' W 076°09'1 2.0
2017-Jun-15 17:00N 36°59' W 076°08'3 5.3
2017-Jun-15 16:31N 36°58' W 076°05'612.3
2017-Jun-15 16:00N 36°55' W 075°57'611.6
2017-Jun-15 15:30N 36°51' W 075°53'1 1.1
2017-Jun-15 15:00N 36°51' W 075°53'12 8.3
2017-Jun-15 13:31N 36°58' W 076°06'0 0.3
2017-Jun-15 13:00N 36°58' W 076°06'0 0.2
2017-Jun-15 12:30N 36°58' W 076°06'1 1.4
2017-Jun-15 12:00N 36°58' W 076°05'1 2.0
2017-Jun-15 11:30N 36°58' W 076°04'5 9.6
2017-Jun-15 11:01N 36°56' W 075°58'5 9.3
2017-Jun-15 10:31N 36°52' W 075°54'3 5.9
2017-Jun-15 10:00N 36°50' W 075°52'5 9.6
2017-Jun-15 09:31N 36°54' W 075°55'510.0
2017-Jun-15 09:00N 36°57' W 076°00'5 9.6
2017-Jun-15 08:30N 36°58' W 076°06'1 1.4
2017-Jun-15 08:00N 36°58' W 076°05'1 1.9
2017-Jun-15 07:30N 36°58' W 076°04'  
Track history (hours):
 
Tides and Currents Weather Stations Pressure Air Temp Water Temp Dewpoint Dewpoint Depression Visibility Wind Speed Wind Dir Waves Ship Positions

Stuyvesant

Owner: THE DUTRA GROUP, SAN RAFAEL, CA. More information available from US FCC via Universal Licensing System and Coast Guard Vessel Documentation Center.

Last reported at 2017-Jun-25 07:02 UTC. Time now 2017-Jul-24 10:43 UTC.
Position N 25°28' W 080°02'.
Warning: this ship's position is 29 days out of date.

Length 122 m; draft 10 m.

Type: Dredging. MMSI: 368098000.

Date/timePositionNaut miles runAvg speedWind from/ knotsBaromVisibWave heightAir tempDewpointWater temp
2017-Jun-25 07:02N 25°28' W 080°02'011.7
2017-Jun-25 07:00N 25°28' W 080°01'611.6
2017-Jun-25 06:30N 25°34' W 080°01'611.6
2017-Jun-25 06:00N 25°39' W 079°60'611.6
2017-Jun-25 05:30N 25°45' W 079°59'611.4
2017-Jun-25 05:00N 25°51' W 079°58'611.3
2017-Jun-25 04:30N 25°56' W 079°57'511.0
2017-Jun-25 04:00N 26°02' W 079°57'510.8
2017-Jun-25 03:30N 26°07' W 079°56'510.6
2017-Jun-25 03:00N 26°13' W 079°55'510.4
2017-Jun-25 02:30N 26°18' W 079°55'510.3
2017-Jun-25 02:00N 26°23' W 079°54'  
2017-Jun-22 17:05N 36°47' W 075°51'110.3
2017-Jun-22 16:58N 36°48' W 075°52'1 1.6
2017-Jun-22 16:25N 36°49' W 075°52'0 0.9
2017-Jun-22 15:58N 36°49' W 075°53'0 0.1
2017-Jun-22 15:14N 36°49' W 075°53'0 0.6
2017-Jun-22 14:57N 36°49' W 075°53'0 0.5
2017-Jun-22 14:19N 36°49' W 075°53'8 9.4
2017-Jun-22 13:30N 36°56' W 075°58'510.7
2017-Jun-22 13:00N 36°58' W 076°04'4 6.8
2017-Jun-22 12:27N 36°59' W 076°09'0 0.4
2017-Jun-22 12:00N 36°59' W 076°09'0 0.5
2017-Jun-22 11:25N 36°59' W 076°09'1 1.3
2017-Jun-22 11:00N 36°59' W 076°10'2 2.4
2017-Jun-22 10:13N 36°59' W 076°07'312.0
2017-Jun-22 10:00N 36°58' W 076°04'611.2
2017-Jun-22 09:28N 36°55' W 075°58'510.3
2017-Jun-22 09:00N 36°52' W 075°54'1 1.3
2017-Jun-22 08:26N 36°51' W 075°53'410.3
2017-Jun-22 08:00N 36°55' W 075°57'611.8
2017-Jun-22 07:30N 36°58' W 076°03'5 4.0
2017-Jun-22 06:09N 36°59' W 076°10'2 2.3
2017-Jun-22 05:23N 36°59' W 076°08'4 9.2
2017-Jun-22 05:00N 36°58' W 076°03'5 9.3
2017-Jun-22 04:29N 36°56' W 075°58'5 9.7
2017-Jun-22 04:00N 36°52' W 075°54'0 0.4
2017-Jun-22 03:19N 36°52' W 075°54'3 8.8
2017-Jun-22 03:00N 36°54' W 075°56'511.0
2017-Jun-22 02:30N 36°57' W 076°02'7 6.7
2017-Jun-22 01:30N 36°59' W 076°10'0 0.2
2017-Jun-22 00:58N 36°59' W 076°10'0 0.2
2017-Jun-22 00:25N 36°59' W 076°10'0 0.3
2017-Jun-21 23:58N 36°59' W 076°10'9 6.8
2017-Jun-21 22:42N 36°58' W 076°20'1 0.3
2017-Jun-21 20:16N 36°57' W 076°21'0 0.1
2017-Jun-21 19:58N 36°58' W 076°21'0 0.0
2017-Jun-21 19:28N 36°58' W 076°21'0 0.0
2017-Jun-21 18:58N 36°58' W 076°21'0 0.0
2017-Jun-21 18:28N 36°58' W 076°21'0 0.0
2017-Jun-21 17:40N 36°58' W 076°21'0 0.0
2017-Jun-21 17:28N 36°58' W 076°21'0 0.0
2017-Jun-21 16:58N 36°58' W 076°21'0 0.0
2017-Jun-21 16:28N 36°58' W 076°21'0 0.0
2017-Jun-21 15:55N 36°58' W 076°21'0 0.0
2017-Jun-21 15:25N 36°58' W 076°21'0 0.0
2017-Jun-21 14:55N 36°58' W 076°21'0 0.0
2017-Jun-21 14:28N 36°58' W 076°21'8 8.1
2017-Jun-21 13:27N 36°59' W 076°11'511.4
2017-Jun-21 13:01N 36°58' W 076°05'611.0
2017-Jun-21 12:30N 36°56' W 075°58'611.3
2017-Jun-21 12:00N 36°51' W 075°54'0 0.9
2017-Jun-21 11:30N 36°51' W 075°53'510.5
2017-Jun-21 11:00N 36°55' W 075°57'510.4
2017-Jun-21 10:31N 36°57' W 076°03'4 1.6
2017-Jun-21 08:07N 36°59' W 076°08'1 8.7
2017-Jun-21 08:00N 36°58' W 076°06'510.9
2017-Jun-21 07:30N 36°56' W 075°60'510.5
2017-Jun-21 07:00N 36°53' W 075°55'2 3.4
2017-Jun-21 06:20N 36°51' W 075°53'410.1
2017-Jun-21 05:58N 36°54' W 075°56'510.6
2017-Jun-21 05:31N 36°57' W 076°01'6 2.6
2017-Jun-21 03:08N 36°59' W 076°09'0 1.7
2017-Jun-21 02:59N 36°59' W 076°08'2 5.1
2017-Jun-21 02:31N 36°58' W 076°05'5 9.6
2017-Jun-21 01:57N 36°56' W 075°59'4 9.3
2017-Jun-21 01:30N 36°53' W 075°55'5 8.7
2017-Jun-21 00:59N 36°49' W 075°53'3 6.5
2017-Jun-21 00:30N 36°52' W 075°54'4 9.1
2017-Jun-21 00:00N 36°56' W 075°58'5 9.4
2017-Jun-20 23:30N 36°58' W 076°03'4 5.7
2017-Jun-20 22:45N 36°59' W 076°08'1 1.9
2017-Jun-20 22:24N 36°59' W 076°09'1 1.3
2017-Jun-20 21:53N 36°59' W 076°10'1 2.3
2017-Jun-20 21:30N 36°59' W 076°09'11 0.8
2017-Jun-20 08:01N 36°55' W 075°56'5 9.8
2017-Jun-20 07:30N 36°57' W 076°02'2 4.9
2017-Jun-20 07:00N 36°58' W 076°04'1 1.6
2017-Jun-20 06:31N 36°58' W 076°05'0 0.5
2017-Jun-20 06:01N 36°58' W 076°06'1 1.6
2017-Jun-20 05:30N 36°58' W 076°05'2 3.2
2017-Jun-20 05:00N 36°57' W 076°03'5 9.2
2017-Jun-20 04:31N 36°56' W 075°58'4 9.0
2017-Jun-20 04:00N 36°52' W 075°54'2 3.2
2017-Jun-20 03:26N 36°51' W 075°53'4 9.5
2017-Jun-20 02:58N 36°54' W 075°56'512.0
2017-Jun-20 02:31N 36°57' W 076°02'2 4.4
2017-Jun-20 01:59N 36°58' W 076°05'1 2.0
2017-Jun-20 01:30N 36°58' W 076°06'0 0.9
2017-Jun-20 01:00N 36°58' W 076°05'1 2.0
2017-Jun-20 00:30N 36°58' W 076°04'5 9.2
2017-Jun-20 00:00N 36°56' W 075°59'5 9.1
2017-Jun-19 23:31N 36°53' W 075°55'4 8.2
2017-Jun-19 23:00N 36°49' W 075°53'3 7.2
2017-Jun-19 22:31N 36°52' W 075°54'5 9.6
2017-Jun-19 22:00N 36°56' W 075°58'5 9.7
2017-Jun-19 21:30N 36°58' W 076°04'1 2.0
2017-Jun-19 21:00N 36°58' W 076°05'1 1.7
2017-Jun-19 20:30N 36°58' W 076°06'1 1.5
2017-Jun-19 20:01N 36°58' W 076°05'1 2.2
2017-Jun-19 19:30N 36°58' W 076°04'510.0
2017-Jun-19 19:00N 36°56' W 075°58'510.2
2017-Jun-19 18:31N 36°52' W 075°54'1 2.0
2017-Jun-19 17:57N 36°51' W 075°53'4 9.8
2017-Jun-19 17:31N 36°55' W 075°57'510.6
2017-Jun-19 17:00N 36°57' W 076°02'2 4.0
2017-Jun-19 16:30N 36°58' W 076°05'1 1.9
2017-Jun-19 16:01N 36°58' W 076°06'0 0.1
2017-Jun-19 15:31N 36°58' W 076°06'1 1.4
2017-Jun-19 15:00N 36°58' W 076°05'2 2.4
2017-Jun-19 14:01N 36°57' W 076°02'5 9.1
2017-Jun-19 13:31N 36°55' W 075°57'5 9.3
2017-Jun-19 13:01N 36°51' W 075°53'1 2.0
2017-Jun-19 12:29N 36°51' W 075°53'5 9.7
2017-Jun-19 12:01N 36°54' W 075°56'510.1
2017-Jun-19 11:31N 36°57' W 076°01'4 7.9
2017-Jun-19 11:01N 36°58' W 076°06'1 2.0
2017-Jun-19 10:30N 36°58' W 076°05'0 0.9
2017-Jun-19 10:00N 36°58' W 076°04'1 1.4
2017-Jun-19 09:28N 36°58' W 076°05'1 1.5
2017-Jun-19 09:00N 36°58' W 076°06'611.4
2017-Jun-19 08:31N 36°56' W 075°59'510.4
2017-Jun-19 08:00N 36°53' W 075°55'4 7.8
2017-Jun-19 07:30N 36°49' W 075°53'4 7.3
2017-Jun-19 06:59N 36°53' W 075°55'5 9.7
2017-Jun-19 06:29N 36°56' W 075°59'4 9.1
2017-Jun-19 06:01N 36°58' W 076°04'1 1.8
2017-Jun-19 05:27N 36°58' W 076°05'1 1.5
2017-Jun-19 05:00N 36°58' W 076°06'0 0.8
2017-Jun-19 04:30N 36°58' W 076°06'1 1.4
2017-Jun-19 04:00N 36°58' W 076°05'1 2.7
2017-Jun-19 03:31N 36°58' W 076°03'5 9.0
2017-Jun-19 03:00N 36°56' W 075°58'4 8.8
2017-Jun-19 02:30N 36°52' W 075°54'3 6.6
2017-Jun-19 02:00N 36°49' W 075°53'5 9.2
2017-Jun-19 01:30N 36°53' W 075°55'510.6
2017-Jun-19 01:01N 36°57' W 076°00'3 6.5
2017-Jun-19 00:30N 36°58' W 076°04'1 1.4
2017-Jun-19 00:01N 36°58' W 076°05'0 1.0
2017-Jun-18 23:30N 36°58' W 076°06'1 2.2
2017-Jun-18 23:01N 36°58' W 076°04'0 0.6
2017-Jun-18 22:31N 36°58' W 076°04'1 1.2
2017-Jun-18 22:01N 36°58' W 076°05'1 1.1
2017-Jun-18 21:31N 36°58' W 076°04'4 8.1
2017-Jun-18 21:01N 36°56' W 075°60'510.5
2017-Jun-18 20:30N 36°53' W 075°55'3 6.9
2017-Jun-18 20:00N 36°50' W 075°53'4 8.0
2017-Jun-18 19:30N 36°53' W 075°55'4 9.0
2017-Jun-18 19:00N 36°56' W 075°59'4 7.9
2017-Jun-18 18:29N 36°58' W 076°04'1 1.1
2017-Jun-18 18:00N 36°58' W 076°05'1 1.4
2017-Jun-18 17:30N 36°58' W 076°05'0 0.7
2017-Jun-18 17:01N 36°58' W 076°06'1 1.8
2017-Jun-18 16:30N 36°58' W 076°05'1 1.6
2017-Jun-18 16:01N 36°58' W 076°04'4 8.0
2017-Jun-18 15:30N 36°56' W 075°59'4 7.9
2017-Jun-18 15:00N 36°54' W 075°56'3 3.1
2017-Jun-18 13:58N 36°51' W 075°53'510.3
2017-Jun-18 13:30N 36°55' W 075°57'510.7
2017-Jun-18 13:00N 36°57' W 076°03'2 3.4
2017-Jun-18 12:31N 36°58' W 076°05'1 1.2
2017-Jun-18 12:00N 36°58' W 076°06'0 0.8
2017-Jun-18 11:31N 36°58' W 076°06'1 1.5
2017-Jun-18 11:00N 36°58' W 076°05'1 1.4
2017-Jun-18 10:30N 36°58' W 076°04'4 8.1
2017-Jun-18 09:59N 36°56' W 075°59'510.1
2017-Jun-18 09:30N 36°53' W 075°55'5 7.2
2017-Jun-18 08:52N 36°49' W 075°53'2 5.9
2017-Jun-18 08:29N 36°51' W 075°53'3 6.9
2017-Jun-18 07:59N 36°54' W 075°56'4 6.8
2017-Jun-18 07:28N 36°56' W 075°59'3 7.2
2017-Jun-18 07:00N 36°57' W 076°03'2 2.5
2017-Jun-18 06:20N 36°58' W 076°05'0 1.3
2017-Jun-18 06:00N 36°58' W 076°05'0 0.9
2017-Jun-18 05:30N 36°58' W 076°06'1 2.8
2017-Jun-18 05:00N 36°58' W 076°04'1 1.6
2017-Jun-18 04:28N 36°58' W 076°05'1 1.7
2017-Jun-18 04:00N 36°58' W 076°06'1 1.3
2017-Jun-18 03:30N 36°58' W 076°05'1 1.6
2017-Jun-18 03:00N 36°58' W 076°04'2 4.3
2017-Jun-18 02:31N 36°57' W 076°02'5 9.1
2017-Jun-18 02:01N 36°55' W 075°57'6 9.6
2017-Jun-18 01:22N 36°50' W 075°53'2 4.8
2017-Jun-18 01:00N 36°51' W 075°53'5 9.8
2017-Jun-18 00:30N 36°55' W 075°57'510.5
2017-Jun-18 00:01N 36°58' W 076°03'1 2.1
2017-Jun-17 23:28N 36°58' W 076°05'0 1.1
2017-Jun-17 23:00N 36°58' W 076°05'1 1.0
2017-Jun-17 22:31N 36°58' W 076°06'1 1.6
2017-Jun-17 22:00N 36°58' W 076°05'1 1.9
2017-Jun-17 21:31N 36°58' W 076°04'611.2
2017-Jun-17 21:01N 36°55' W 075°57'611.1
2017-Jun-17 20:30N 36°51' W 075°53'1 2.4
2017-Jun-17 20:00N 36°52' W 075°54'5 9.5
2017-Jun-17 19:30N 36°56' W 075°58'5 9.4
2017-Jun-17 19:00N 36°57' W 076°03'2 2.5
2017-Jun-17 18:23N 36°58' W 076°05'0 1.1
2017-Jun-17 18:00N 36°58' W 076°05'1 1.2
2017-Jun-17 17:28N 36°58' W 076°06'1 1.4
2017-Jun-17 17:00N 36°58' W 076°05'1 1.6
2017-Jun-17 16:31N 36°58' W 076°04'2 5.0
2017-Jun-17 16:00N 36°57' W 076°02'510.1
2017-Jun-17 15:30N 36°54' W 075°56'510.2
2017-Jun-17 15:00N 36°50' W 075°53'2 4.1
2017-Jun-17 14:31N 36°52' W 075°54'1010.1
2017-Jun-17 13:30N 36°58' W 076°04'2 3.3
2017-Jun-17 13:01N 36°58' W 076°06'1 1.2
2017-Jun-17 12:30N 36°58' W 076°05'1 1.0
2017-Jun-17 12:00N 36°58' W 076°06'1 1.6
2017-Jun-17 11:30N 36°58' W 076°05'1 1.3
2017-Jun-17 11:00N 36°58' W 076°04'510.0
2017-Jun-17 10:31N 36°56' W 075°58'510.1
2017-Jun-17 10:00N 36°52' W 075°54'10 0.8
2017-Jun-16 21:31N 36°58' W 076°04'0 1.4
2017-Jun-16 21:31N 36°58' W 076°04'1 1.2
2017-Jun-16 21:00N 36°58' W 076°05'1 1.4
2017-Jun-16 20:30N 36°58' W 076°06'0 1.0
2017-Jun-16 20:01N 36°58' W 076°05'1 1.8
2017-Jun-16 19:30N 36°58' W 076°04'5 9.3
2017-Jun-16 19:00N 36°56' W 075°59'510.6
2017-Jun-16 18:31N 36°52' W 075°54'2 3.1
2017-Jun-16 17:55N 36°51' W 075°53'3 8.2
2017-Jun-16 17:30N 36°53' W 075°55'4 9.0
2017-Jun-16 17:01N 36°56' W 075°60'5 9.8
2017-Jun-16 16:30N 36°58' W 076°05'0 0.3
2017-Jun-16 16:00N 36°58' W 076°05'1 1.6
2017-Jun-16 15:30N 36°58' W 076°04'0 0.8
2017-Jun-16 15:00N 36°58' W 076°04'7 7.1
2017-Jun-16 14:00N 36°54' W 075°56'5 9.9
2017-Jun-16 13:30N 36°50' W 075°53'2 3.3
2017-Jun-16 13:00N 36°52' W 075°53'510.7
2017-Jun-16 12:30N 36°56' W 075°58'611.2
2017-Jun-16 12:01N 36°58' W 076°04'1 2.4
2017-Jun-16 11:30N 36°58' W 076°05'0 0.5
2017-Jun-16 11:01N 36°58' W 076°06'0 0.6
2017-Jun-16 10:31N 36°58' W 076°05'1 1.2
2017-Jun-16 10:01N 36°58' W 076°05'1 1.0
2017-Jun-16 09:31N 36°58' W 076°04'4 8.4
2017-Jun-16 09:01N 36°56' W 075°59'510.3
2017-Jun-16 08:30N 36°53' W 075°55'4 7.5
2017-Jun-16 08:00N 36°49' W 075°52'5 9.7
2017-Jun-16 07:31N 36°53' W 075°55'5 9.4
2017-Jun-16 07:01N 36°57' W 075°60'5 9.2
2017-Jun-16 06:27N 36°58' W 076°06'2 2.9
2017-Jun-16 05:37N 36°59' W 076°09'0 1.1
2017-Jun-16 05:28N 36°59' W 076°09'1 1.3
2017-Jun-16 04:59N 36°59' W 076°10'2 3.3
2017-Jun-16 04:28N 36°59' W 076°08'511.4
2017-Jun-16 04:00N 36°57' W 076°01'510.6
2017-Jun-16 03:30N 36°54' W 075°56'510.2
2017-Jun-16 03:00N 36°50' W 075°53'2 4.6
2017-Jun-16 02:30N 36°52' W 075°54'5 9.6
2017-Jun-16 02:00N 36°55' W 075°57'510.5
2017-Jun-16 01:29N 36°58' W 076°04'4 5.3
2017-Jun-16 00:45N 36°59' W 076°08'1 2.3
2017-Jun-16 00:29N 36°59' W 076°09'1 1.7
2017-Jun-15 23:59N 36°59' W 076°10'1 1.9
2017-Jun-15 23:29N 36°59' W 076°09'1 1.9
2017-Jun-15 22:56N 36°59' W 076°08'4 8.7
2017-Jun-15 22:30N 36°58' W 076°03'510.6
2017-Jun-15 22:00N 36°55' W 075°57'510.0
2017-Jun-15 21:30N 36°51' W 075°53'0 0.5
2017-Jun-15 20:53N 36°51' W 075°53'3 8.8
2017-Jun-15 20:30N 36°54' W 075°56'5 9.4
2017-Jun-15 20:00N 36°57' W 076°00'5 9.2
2017-Jun-15 19:30N 36°58' W 076°06'2 4.0
2017-Jun-15 18:59N 36°59' W 076°08'1 1.8
2017-Jun-15 18:27N 36°59' W 076°09'1 1.6
2017-Jun-15 18:00N 36°59' W 076°10'1 2.2
2017-Jun-15 17:27N 36°59' W 076°09'1 2.0
2017-Jun-15 17:00N 36°59' W 076°08'3 5.3
2017-Jun-15 16:31N 36°58' W 076°05'612.3
2017-Jun-15 16:00N 36°55' W 075°57'611.6
2017-Jun-15 15:30N 36°51' W 075°53'1 1.1
2017-Jun-15 15:00N 36°51' W 075°53'12 8.3
2017-Jun-15 13:31N 36°58' W 076°06'0 0.3
2017-Jun-15 13:00N 36°58' W 076°06'0 0.2
2017-Jun-15 12:30N 36°58' W 076°06'1 1.4
2017-Jun-15 12:00N 36°58' W 076°05'1 2.0
2017-Jun-15 11:30N 36°58' W 076°04'5 9.6
2017-Jun-15 11:01N 36°56' W 075°58'5 9.3
2017-Jun-15 10:31N 36°52' W 075°54'3 5.9
2017-Jun-15 10:00N 36°50' W 075°52'5 9.6
2017-Jun-15 09:31N 36°54' W 075°55'510.0
2017-Jun-15 09:00N 36°57' W 076°00'5 9.6
2017-Jun-15 08:30N 36°58' W 076°06'1 1.4
2017-Jun-15 08:00N 36°58' W 076°05'1 1.9
2017-Jun-15 07:30N 36°58' W 076°04'  

Dump ship's entire track history